Time;durP1;ratioP1;P1;durP2;ratioP2;P2;SDS_P1;SDS_P2;PMS_P1;PMS_P2;Temp;Humidity;BMP_temperature;BMP_pressure;BME280_temperature;BME280_humidity;BME280_pressure;Samples;Min_cycle;Max_cycle;Signal;HPM_P1;HPM_P2
2023/07/02 00:00:05;;;;;;;1.92;1.30;;;21.80;59.50;;;;;;4938709;29;20035;-76
2023/07/02 00:02:37;;;;;;;2.38;1.48;;;21.80;59.60;;;;;;4954552;29;20031;-74
2023/07/02 00:05:04;;;;;;;2.03;1.40;;;21.80;59.50;;;;;;4954730;29;20046;-76
2023/07/02 00:07:30;;;;;;;2.30;1.30;;;21.80;59.50;;;;;;4939468;29;20376;-77
2023/07/02 00:09:56;;;;;;;2.55;1.60;;;21.80;59.60;;;;;;4956126;28;20515;-75
2023/07/02 00:12:22;;;;;;;2.22;1.65;;;21.80;59.60;;;;;;4954838;29;20149;-75
2023/07/02 00:14:48;;;;;;;2.95;1.40;;;21.80;59.70;;;;;;4939246;28;20065;-77
2023/07/02 00:17:13;;;;;;;2.35;1.60;;;21.80;59.70;;;;;;4954360;29;20027;-75
2023/07/02 00:19:42;;;;;;;2.70;1.52;;;21.70;59.70;;;;;;4938498;29;20031;-75
2023/07/02 00:22:09;;;;;;;2.35;1.48;;;21.80;59.80;;;;;;4938779;29;20517;-76
2023/07/02 00:24:35;;;;;;;2.92;1.70;;;21.70;59.80;;;;;;4954051;29;20086;-75
2023/07/02 00:27:01;;;;;;;2.50;1.55;;;21.70;59.80;;;;;;4954405;29;20042;-75
2023/07/02 00:29:27;;;;;;;2.75;1.60;;;21.70;59.80;;;;;;4954348;28;20035;-75
2023/07/02 00:31:53;;;;;;;2.63;1.70;;;21.70;59.70;;;;;;4954744;29;20121;-75
2023/07/02 00:34:19;;;;;;;2.67;1.77;;;21.70;59.80;;;;;;4938400;29;20383;-76
2023/07/02 00:36:45;;;;;;;3.70;2.00;;;21.70;59.80;;;;;;4954263;29;20090;-75
2023/07/02 00:39:14;;;;;;;2.00;1.50;;;21.70;59.80;;;;;;4954351;29;20046;-76
2023/07/02 00:41:41;;;;;;;3.70;1.98;;;21.70;59.80;;;;;;4954231;29;20067;-75
2023/07/02 00:44:10;;;;;;;2.63;1.65;;;21.70;59.90;;;;;;4955429;29;20122;-76
2023/07/02 00:46:36;;;;;;;2.35;1.75;;;21.70;59.80;;;;;;4955301;28;20075;-75
2023/07/02 00:49:04;;;;;;;3.55;1.83;;;21.60;59.70;;;;;;4954437;29;20094;-76
2023/07/02 00:51:30;;;;;;;3.72;1.90;;;21.60;59.90;;;;;;4955485;28;20031;-75
2023/07/02 00:53:57;;;;;;;2.63;1.83;;;21.60;59.90;;;;;;4954297;29;20035;-75
2023/07/02 00:56:25;;;;;;;3.40;1.85;;;21.60;59.90;;;;;;4938326;28;20023;-75
2023/07/02 00:58:53;;;;;;;3.60;2.10;;;21.60;60.00;;;;;;4954036;29;20027;-76
2023/07/02 01:01:19;;;;;;;3.88;2.45;;;21.50;60.00;;;;;;4954187;28;20383;-75
2023/07/02 01:03:53;;;;;;;4.25;2.45;;;21.60;60.10;;;;;;4955334;28;20039;-75
2023/07/02 01:06:26;;;;;;;4.53;2.40;;;21.60;60.20;;;;;;4953829;28;20042;-76
2023/07/02 01:08:55;;;;;;;3.80;2.22;;;21.60;60.20;;;;;;4954921;28;20090;-76
2023/07/02 01:11:30;;;;;;;4.47;2.42;;;21.60;60.90;;;;;;4955364;28;20086;-75
2023/07/02 01:14:02;;;;;;;3.20;2.03;;;21.50;60.20;;;;;;4954214;29;20039;-75
2023/07/02 01:16:30;;;;;;;3.92;2.28;;;21.50;60.30;;;;;;4938266;29;20031;-76
2023/07/02 01:18:56;;;;;;;3.85;2.42;;;21.50;60.30;;;;;;4953975;29;20032;-75
2023/07/02 01:21:24;;;;;;;4.22;2.28;;;21.50;60.40;;;;;;4937901;29;20031;-76
2023/07/02 01:23:51;;;;;;;4.05;2.67;;;21.50;60.50;;;;;;4953680;29;20070;-75
2023/07/02 01:26:17;;;;;;;4.35;2.30;;;21.50;60.60;;;;;;4954389;28;20126;-75
2023/07/02 01:28:42;;;;;;;3.65;2.33;;;21.50;60.60;;;;;;4953850;29;20055;-75
2023/07/02 01:31:08;;;;;;;4.03;2.47;;;21.40;60.50;;;;;;4937784;28;20486;-77
2023/07/02 01:33:35;;;;;;;4.93;2.63;;;21.50;60.60;;;;;;4938645;29;20067;-75
2023/07/02 01:36:01;;;;;;;3.70;2.15;;;21.40;60.50;;;;;;4953459;29;20094;-75
2023/07/02 01:38:27;;;;;;;4.95;2.55;;;21.40;60.60;;;;;;4937950;29;20053;-75
2023/07/02 01:40:53;;;;;;;5.65;2.97;;;21.40;60.60;;;;;;4941153;28;20023;-75
2023/07/02 01:43:19;;;;;;;5.32;2.90;;;21.40;60.70;;;;;;4941088;29;20109;-76
2023/07/02 01:45:45;;;;;;;4.00;2.47;;;21.30;60.70;;;;;;4941406;28;20043;-76
2023/07/02 01:48:11;;;;;;;4.90;2.92;;;21.40;60.80;;;;;;4941349;29;20023;-75
2023/07/02 01:50:36;;;;;;;5.10;3.00;;;21.40;60.90;;;;;;4941430;29;20041;-75
2023/07/02 01:53:02;;;;;;;5.05;2.75;;;21.30;60.80;;;;;;4957350;29;20374;-77
2023/07/02 01:55:28;;;;;;;4.07;2.70;;;21.30;60.80;;;;;;4957876;29;20035;-78
2023/07/02 01:57:54;;;;;;;4.97;2.72;;;21.30;60.90;;;;;;4942004;29;20042;-77
2023/07/02 02:00:19;;;;;;;4.25;2.78;;;21.30;60.90;;;;;;4957248;29;20122;-77
2023/07/02 02:02:45;;;;;;;5.45;2.85;;;21.30;60.90;;;;;;4957021;29;20113;-77
2023/07/02 02:05:11;;;;;;;4.20;2.85;;;21.20;60.90;;;;;;4925357;29;20122;-78
2023/07/02 02:07:37;;;;;;;4.63;2.95;;;21.20;60.80;;;;;;4957574;29;20089;-77
2023/07/02 02:10:07;;;;;;;4.60;3.05;;;21.20;60.90;;;;;;4941758;29;20078;-78
2023/07/02 02:12:33;;;;;;;4.72;2.80;;;21.20;60.90;;;;;;4941857;29;20043;-77
2023/07/02 02:14:58;;;;;;;4.15;2.90;;;21.10;60.80;;;;;;4956867;29;20555;-77
2023/07/02 02:17:24;;;;;;;5.78;2.80;;;21.10;60.90;;;;;;4940696;29;20534;-78
2023/07/02 02:19:50;;;;;;;5.18;2.78;;;21.10;61.00;;;;;;4940417;29;20481;-77
2023/07/02 02:22:16;;;;;;;4.70;3.20;;;21.10;60.90;;;;;;4956326;29;20046;-78
2023/07/02 02:24:42;;;;;;;5.55;3.38;;;21.00;61.00;;;;;;4956642;29;20117;-77
2023/07/02 02:27:08;;;;;;;4.60;2.85;;;21.00;60.90;;;;;;4940935;29;20484;-77
2023/07/02 02:29:34;;;;;;;5.13;3.20;;;21.00;60.90;;;;;;4940611;28;20031;-77
2023/07/02 02:32:00;;;;;;;6.03;3.08;;;21.00;60.90;;;;;;4956175;29;20078;-78
2023/07/02 02:34:26;;;;;;;5.38;3.13;;;20.90;60.90;;;;;;4956339;29;20582;-77
2023/07/02 02:36:54;;;;;;;5.25;2.97;;;20.90;60.90;;;;;;4940755;28;20110;-77
2023/07/02 02:39:21;;;;;;;4.28;2.70;;;20.90;61.00;;;;;;4940419;29;20035;-77
2023/07/02 02:41:47;;;;;;;5.63;3.28;;;20.80;61.00;;;;;;4957322;28;20385;-77
2023/07/02 02:44:15;;;;;;;5.25;2.83;;;20.80;61.00;;;;;;4941041;29;20054;-77
2023/07/02 02:46:41;;;;;;;5.40;3.38;;;20.80;61.00;;;;;;4940393;29;20032;-76
2023/07/02 02:49:07;;;;;;;4.70;2.88;;;20.70;61.10;;;;;;4956454;29;20061;-77
2023/07/02 02:51:32;;;;;;;4.22;2.60;;;20.70;61.10;;;;;;4939771;29;20043;-77
2023/07/02 02:53:58;;;;;;;5.85;2.95;;;20.70;61.10;;;;;;4941044;29;20035;-77
2023/07/02 02:56:24;;;;;;;5.88;3.38;;;20.70;61.10;;;;;;4940230;29;20036;-78
2023/07/02 02:58:49;;;;;;;5.88;3.03;;;20.60;61.10;;;;;;4940261;29;20032;-77
2023/07/02 03:01:15;;;;;;;4.75;2.88;;;20.60;61.10;;;;;;4940175;29;20031;-77
2023/07/02 03:03:47;;;;;;;4.70;2.85;;;20.60;61.20;;;;;;4955950;29;20047;-77
2023/07/02 03:06:14;;;;;;;5.78;3.42;;;20.60;61.20;;;;;;4956416;29;20036;-77
2023/07/02 03:08:40;;;;;;;4.47;3.03;;;20.60;61.20;;;;;;4940031;29;20118;-78
2023/07/02 03:11:06;;;;;;;4.82;3.00;;;20.50;61.20;;;;;;4955907;29;20072;-77
2023/07/02 03:13:32;;;;;;;4.22;2.70;;;20.50;61.20;;;;;;4940208;28;20042;-77
2023/07/02 03:15:57;;;;;;;5.10;2.85;;;20.40;61.20;;;;;;4939823;29;20519;-78
2023/07/02 03:18:23;;;;;;;5.38;3.05;;;20.40;61.20;;;;;;4939946;29;20035;-76
2023/07/02 03:20:49;;;;;;;5.68;3.13;;;20.40;61.20;;;;;;4955805;29;20070;-77
2023/07/02 03:23:14;;;;;;;5.05;3.03;;;20.40;61.20;;;;;;4939939;29;20089;-77
2023/07/02 03:25:40;;;;;;;4.55;2.88;;;20.40;61.30;;;;;;4955669;29;20055;-77
2023/07/02 03:28:06;;;;;;;5.85;3.42;;;20.40;61.30;;;;;;4939541;28;20038;-78
2023/07/02 03:30:31;;;;;;;6.07;3.10;;;20.30;61.30;;;;;;4955997;29;20109;-77
2023/07/02 03:32:57;;;;;;;5.70;2.90;;;20.30;61.30;;;;;;4955174;29;20472;-77
2023/07/02 03:35:23;;;;;;;5.50;3.20;;;20.30;61.30;;;;;;4955138;29;20027;-77
2023/07/02 03:37:49;;;;;;;5.00;3.17;;;20.30;61.30;;;;;;4956311;28;20023;-78
2023/07/02 03:40:15;;;;;;;4.53;2.67;;;20.20;61.30;;;;;;4956229;28;20035;-77
2023/07/02 03:42:40;;;;;;;5.13;3.20;;;20.20;61.30;;;;;;4939117;29;20493;-77
2023/07/02 03:45:06;;;;;;;5.90;3.17;;;20.20;61.30;;;;;;4939108;29;20051;-77
2023/07/02 03:47:32;;;;;;;5.00;2.90;;;20.20;61.40;;;;;;4939124;29;20028;-76
2023/07/02 03:49:58;;;;;;;5.13;3.05;;;20.20;61.40;;;;;;4955105;29;20032;-77
2023/07/02 03:52:24;;;;;;;4.18;2.85;;;20.10;61.30;;;;;;4939291;29;20121;-77
2023/07/02 03:54:49;;;;;;;5.60;3.10;;;20.10;61.40;;;;;;4939277;29;20042;-77
2023/07/02 03:57:15;;;;;;;5.47;3.33;;;20.10;61.40;;;;;;4938946;29;20031;-77
2023/07/02 03:59:41;;;;;;;5.28;2.88;;;20.10;61.40;;;;;;4956110;28;20035;-77
2023/07/02 04:02:06;;;;;;;4.90;2.78;;;20.10;61.40;;;;;;4938354;28;20392;-77
2023/07/02 04:04:32;;;;;;;5.00;2.85;;;20.00;61.40;;;;;;4938082;29;20489;-77
2023/07/02 04:06:58;;;;;;;5.13;2.90;;;20.00;61.40;;;;;;4954611;29;20035;-77
2023/07/02 04:09:24;;;;;;;5.85;3.70;;;20.00;61.40;;;;;;4955649;28;20453;-77
2023/07/02 04:11:49;;;;;;;6.03;3.25;;;20.00;61.40;;;;;;4955047;29;20031;-77
2023/07/02 04:14:15;;;;;;;4.60;2.92;;;20.00;61.50;;;;;;4938773;29;20078;-77
2023/07/02 04:16:44;;;;;;;4.72;3.20;;;20.00;61.50;;;;;;4955865;28;20123;-77
2023/07/02 04:19:10;;;;;;;5.28;3.40;;;19.90;61.50;;;;;;4955783;28;20039;-78
2023/07/02 04:21:36;;;;;;;5.70;3.15;;;19.90;61.50;;;;;;4954637;29;20453;-77
2023/07/02 04:24:02;;;;;;;6.63;3.42;;;19.90;61.50;;;;;;4954168;29;20028;-77
2023/07/02 04:26:27;;;;;;;6.05;3.67;;;19.90;61.60;;;;;;4955374;28;20113;-77
2023/07/02 04:28:54;;;;;;;5.28;3.17;;;19.90;61.50;;;;;;4938116;29;20488;-77
2023/07/02 04:31:21;;;;;;;5.22;3.50;;;19.90;61.60;;;;;;4955030;29;20035;-77
2023/07/02 04:33:47;;;;;;;4.95;2.85;;;19.90;61.60;;;;;;4938578;29;20472;-77
2023/07/02 04:36:12;;;;;;;4.82;2.92;;;19.80;61.50;;;;;;4938991;29;20035;-77
2023/07/02 04:38:39;;;;;;;4.68;2.85;;;19.80;61.60;;;;;;4939027;29;20035;-77
2023/07/02 04:41:05;;;;;;;5.10;3.00;;;19.80;61.60;;;;;;4954312;29;20031;-77
2023/07/02 04:43:32;;;;;;;4.72;2.80;;;19.80;61.60;;;;;;4922042;29;20496;-78
2023/07/02 04:45:59;;;;;;;4.80;3.03;;;19.80;61.60;;;;;;4955580;28;20031;-78
2023/07/02 04:48:25;;;;;;;4.82;3.20;;;19.80;61.70;;;;;;4938224;29;20034;-77
2023/07/02 04:50:50;;;;;;;5.45;3.10;;;19.70;61.60;;;;;;4954358;28;20031;-77
2023/07/02 04:53:16;;;;;;;5.35;2.97;;;19.70;61.60;;;;;;4954960;29;20070;-77
2023/07/02 04:55:43;;;;;;;4.43;2.72;;;19.70;61.60;;;;;;4953983;29;20043;-77
2023/07/02 04:58:09;;;;;;;4.93;3.08;;;19.70;61.70;;;;;;4956246;28;20477;-78
2023/07/02 05:00:34;;;;;;;7.07;3.65;;;19.70;61.60;;;;;;4953939;29;20058;-77
2023/07/02 05:03:00;;;;;;;5.03;3.08;;;19.70;61.60;;;;;;4938206;29;20057;-77
2023/07/02 05:05:26;;;;;;;5.25;3.15;;;19.70;61.60;;;;;;4938872;28;20439;-77
2023/07/02 05:07:52;;;;;;;4.80;2.97;;;19.70;62.30;;;;;;4955566;28;20081;-76
2023/07/02 05:10:18;;;;;;;5.78;2.88;;;19.60;61.60;;;;;;4954027;29;20028;-77
2023/07/02 05:12:44;;;;;;;5.95;3.13;;;19.60;61.70;;;;;;4955542;28;20031;-77
2023/07/02 05:15:11;;;;;;;4.85;2.88;;;19.60;61.60;;;;;;4956368;28;20046;-77
2023/07/02 05:17:37;;;;;;;4.95;2.83;;;19.60;61.60;;;;;;4958582;29;20059;-77
2023/07/02 05:20:07;;;;;;;5.68;3.10;;;19.70;61.70;;;;;;4958473;29;20090;-77
2023/07/02 05:22:32;;;;;;;4.95;2.92;;;19.60;61.70;;;;;;4957649;29;20039;-77
2023/07/02 05:24:58;;;;;;;5.65;3.03;;;19.60;61.70;;;;;;4957527;28;20579;-79
2023/07/02 05:27:24;;;;;;;4.22;2.80;;;19.60;61.70;;;;;;4957213;29;20130;-77
2023/07/02 05:29:50;;;;;;;5.18;3.10;;;19.60;61.70;;;;;;4958814;28;20067;-76
2023/07/02 05:32:15;;;;;;;5.63;3.40;;;19.60;61.70;;;;;;4957485;29;20031;-77
2023/07/02 05:34:41;;;;;;;5.72;3.20;;;19.60;61.70;;;;;;4958725;28;20539;-77
2023/07/02 05:37:07;;;;;;;4.85;3.08;;;19.60;61.60;;;;;;4957263;29;20106;-77
2023/07/02 05:39:34;;;;;;;6.20;3.40;;;19.60;61.60;;;;;;4957104;29;20039;-77
2023/07/02 05:42:00;;;;;;;4.90;2.80;;;19.60;61.60;;;;;;4957318;28;20064;-77
2023/07/02 05:44:25;;;;;;;6.93;3.25;;;19.60;61.60;;;;;;4941418;29;20047;-78
2023/07/02 05:46:51;;;;;;;5.88;3.45;;;19.60;61.60;;;;;;4941611;29;20491;-76
2023/07/02 05:49:17;;;;;;;6.45;3.63;;;19.60;61.60;;;;;;4957268;29;20476;-77
2023/07/02 05:51:43;;;;;;;5.50;3.22;;;19.50;61.50;;;;;;4957342;29;20038;-77
2023/07/02 05:54:08;;;;;;;6.03;3.25;;;19.60;61.60;;;;;;4941169;28;20522;-77
2023/07/02 05:56:34;;;;;;;6.03;3.80;;;19.60;61.60;;;;;;4957407;29;20083;-77
2023/07/02 05:59:00;;;;;;;5.13;2.97;;;19.60;61.60;;;;;;4957162;29;20071;-77
2023/07/02 06:01:25;;;;;;;6.65;3.58;;;19.60;61.60;;;;;;4941052;28;20031;-78
2023/07/02 06:03:51;;;;;;;4.75;2.95;;;19.60;61.60;;;;;;4957044;29;20042;-77
2023/07/02 06:06:17;;;;;;;5.82;3.33;;;19.60;61.60;;;;;;4941020;29;20042;-78
2023/07/02 06:08:43;;;;;;;6.50;3.70;;;19.60;61.60;;;;;;4940717;28;20066;-76
2023/07/02 06:11:10;;;;;;;6.18;3.17;;;19.60;61.50;;;;;;4957127;29;20134;-77
2023/07/02 06:13:36;;;;;;;5.47;3.35;;;19.60;61.60;;;;;;4940860;29;20041;-77
2023/07/02 06:16:01;;;;;;;5.60;3.00;;;19.60;61.50;;;;;;4956570;29;20480;-77
2023/07/02 06:18:27;;;;;;;5.80;3.47;;;19.60;61.50;;;;;;4956679;28;20057;-77
2023/07/02 06:20:53;;;;;;;5.07;3.22;;;19.60;61.50;;;;;;4958064;28;20517;-77
2023/07/02 06:23:19;;;;;;;6.15;3.75;;;19.70;61.50;;;;;;4940657;29;20384;-77
2023/07/02 06:25:44;;;;;;;7.13;3.60;;;19.70;61.50;;;;;;4955425;28;20039;-77
2023/07/02 06:28:10;;;;;;;4.78;3.20;;;19.70;61.40;;;;;;4940625;29;20119;-77
2023/07/02 06:30:36;;;;;;;7.18;3.70;;;19.70;61.40;;;;;;4956733;28;20039;-77
2023/07/02 06:33:02;;;;;;;6.60;3.60;;;19.70;61.40;;;;;;4940869;29;20079;-76
2023/07/02 06:35:27;;;;;;;6.05;3.53;;;19.70;61.40;;;;;;4956275;29;20028;-77
2023/07/02 06:37:53;;;;;;;5.55;3.08;;;19.70;61.40;;;;;;4956658;29;20495;-76
2023/07/02 06:40:22;;;;;;;6.43;3.53;;;19.70;61.30;;;;;;4940498;28;20143;-77
2023/07/02 06:42:49;;;;;;;5.00;3.05;;;19.70;61.40;;;;;;4956274;29;20062;-77
2023/07/02 06:45:17;;;;;;;5.78;3.28;;;19.80;61.30;;;;;;4941939;29;20082;-77
2023/07/02 06:47:44;;;;;;;5.38;3.15;;;19.80;61.30;;;;;;4926674;29;20066;-76
2023/07/02 06:50:11;;;;;;;6.43;3.55;;;19.80;61.30;;;;;;4942243;29;20448;-76
2023/07/02 06:52:37;;;;;;;4.82;2.90;;;19.80;61.30;;;;;;4956116;29;20045;-77
2023/07/02 06:55:03;;;;;;;4.55;2.92;;;19.90;61.30;;;;;;4956657;29;20035;-76
2023/07/02 06:57:29;;;;;;;5.88;3.30;;;19.90;61.30;;;;;;4957517;28;20050;-77
2023/07/02 07:00:01;;;;;;;5.15;3.13;;;19.90;61.20;;;;;;4957185;28;20028;-77
2023/07/02 07:02:27;;;;;;;5.03;2.97;;;19.90;61.20;;;;;;4939955;29;20118;-76
2023/07/02 07:04:53;;;;;;;5.05;2.88;;;19.90;61.10;;;;;;4940146;29;20541;-76
2023/07/02 07:07:19;;;;;;;4.43;2.50;;;19.90;61.10;;;;;;4940307;28;20039;-76
2023/07/02 07:09:45;;;;;;;5.50;3.45;;;20.00;61.20;;;;;;4957681;28;20035;-76
2023/07/02 07:12:10;;;;;;;5.13;2.92;;;20.00;61.10;;;;;;4939984;29;20384;-76
2023/07/02 07:14:36;;;;;;;5.82;2.78;;;20.10;61.20;;;;;;4939697;29;20488;-77
2023/07/02 07:17:02;;;;;;;5.53;3.22;;;20.10;61.10;;;;;;4939997;28;20495;-77
2023/07/02 07:19:28;;;;;;;7.45;3.05;;;20.10;61.00;;;;;;4940486;29;20041;-77
2023/07/02 07:21:54;;;;;;;6.60;3.38;;;20.20;61.00;;;;;;4957345;28;20082;-77
2023/07/02 07:24:19;;;;;;;6.07;3.28;;;20.20;60.90;;;;;;4939901;29;20043;-76
2023/07/02 07:26:45;;;;;;;5.18;3.00;;;20.20;60.80;;;;;;4955681;29;20035;-76
2023/07/02 07:29:11;;;;;;;5.03;2.83;;;20.20;60.80;;;;;;4956221;29;20035;-76
2023/07/02 07:31:37;;;;;;;4.88;2.92;;;20.30;60.80;;;;;;4956851;28;20039;-76
2023/07/02 07:34:03;;;;;;;5.60;3.50;;;20.30;60.70;;;;;;4956551;28;20043;-75
2023/07/02 07:36:28;;;;;;;4.32;2.65;;;20.30;60.70;;;;;;4956959;28;20047;-75
2023/07/02 07:38:54;;;;;;;4.55;2.80;;;20.40;60.70;;;;;;4939297;29;20396;-77
2023/07/02 07:41:20;;;;;;;4.97;2.72;;;20.40;60.60;;;;;;4939358;29;20070;-76
2023/07/02 07:43:45;;;;;;;6.55;3.45;;;20.40;60.50;;;;;;4939156;29;20051;-75
2023/07/02 07:46:11;;;;;;;4.85;2.83;;;20.50;60.50;;;;;;4939362;29;20110;-77
2023/07/02 07:48:37;;;;;;;5.45;2.92;;;20.50;60.40;;;;;;4939184;29;20035;-76
2023/07/02 07:51:02;;;;;;;4.68;3.00;;;20.50;60.40;;;;;;4954994;29;20046;-75
2023/07/02 07:53:28;;;;;;;5.63;3.00;;;20.60;60.30;;;;;;4955091;29;20043;-76
2023/07/02 07:55:54;;;;;;;5.47;3.10;;;20.60;60.20;;;;;;4954943;29;20031;-75
2023/07/02 07:58:20;;;;;;;5.53;3.22;;;20.60;60.20;;;;;;4939055;29;20066;-75
2023/07/02 08:00:45;;;;;;;4.88;3.08;;;20.70;60.20;;;;;;4939071;29;20043;-80
2023/07/02 08:03:11;;;;;;;4.78;2.83;;;20.80;60.10;;;;;;4956754;28;20436;-79
2023/07/02 08:05:37;;;;;;;5.28;3.03;;;20.80;60.00;;;;;;4938909;29;20476;-80
2023/07/02 08:08:03;;;;;;;5.35;3.10;;;20.90;60.00;;;;;;4955246;28;20035;-80
2023/07/02 08:10:29;;;;;;;5.63;3.20;;;20.90;59.80;;;;;;4938993;29;20109;-75
2023/07/02 08:12:54;;;;;;;6.68;3.47;;;21.00;59.80;;;;;;4938547;29;20083;-75
2023/07/02 08:15:21;;;;;;;4.95;2.75;;;21.00;59.70;;;;;;4938751;29;20432;-76
2023/07/02 08:17:46;;;;;;;5.43;2.90;;;21.10;59.60;;;;;;4955636;28;20035;-78
2023/07/02 08:20:12;;;;;;;5.43;2.90;;;21.20;59.60;;;;;;4955092;29;20495;-79
2023/07/02 08:22:39;;;;;;;4.97;2.78;;;21.20;59.40;;;;;;4939353;29;20383;-79
2023/07/02 08:25:05;;;;;;;6.75;3.35;;;21.30;59.30;;;;;;4939440;28;20047;-82
2023/07/02 08:27:31;;;;;;;5.15;3.25;;;21.30;59.20;;;;;;4938671;29;20067;-79
2023/07/02 08:29:57;;;;;;;5.63;2.92;;;21.40;59.10;;;;;;4954378;29;20101;-79
2023/07/02 08:32:23;;;;;;;5.30;2.92;;;21.40;59.00;;;;;;4954532;28;20391;-80
2023/07/02 08:34:50;;;;;;;5.63;3.25;;;21.50;58.90;;;;;;4955719;28;20423;-80
2023/07/02 08:37:16;;;;;;;5.20;2.85;;;21.50;58.80;;;;;;4954264;29;20150;-79
2023/07/02 08:39:42;;;;;;;4.68;2.63;;;21.60;58.80;;;;;;4954205;29;20028;-79
2023/07/02 08:42:08;;;;;;;5.95;3.05;;;21.60;58.70;;;;;;4954205;29;20055;-78
2023/07/02 08:44:35;;;;;;;5.18;3.25;;;21.70;58.60;;;;;;4954897;29;20039;-78
2023/07/02 08:47:01;;;;;;;5.32;2.92;;;21.70;58.60;;;;;;4955884;28;20031;-79
2023/07/02 08:49:27;;;;;;;5.15;3.28;;;21.80;58.50;;;;;;4953859;28;20024;-79
2023/07/02 08:51:53;;;;;;;5.28;2.97;;;21.80;58.40;;;;;;4954824;29;20537;-78
2023/07/02 08:54:19;;;;;;;4.70;2.70;;;21.80;58.40;;;;;;4955791;28;20039;-78
2023/07/02 08:56:46;;;;;;;4.82;2.75;;;21.80;58.30;;;;;;4938157;29;20031;-79
2023/07/02 08:59:13;;;;;;;5.95;3.38;;;21.90;58.30;;;;;;4956249;28;20102;-78
2023/07/02 09:01:49;;;;;;;5.18;2.83;;;21.90;58.20;;;;;;4938350;29;20028;-79
2023/07/02 09:04:20;;;;;;;6.95;3.00;;;22.00;58.20;;;;;;4955112;28;20038;-77
2023/07/02 09:06:47;;;;;;;4.50;2.80;;;22.00;58.10;;;;;;4938228;29;20032;-78
2023/07/02 09:09:13;;;;;;;5.10;2.88;;;22.00;58.00;;;;;;4938185;29;20028;-83
2023/07/02 09:11:51;;;;;;;5.18;2.72;;;22.10;58.00;;;;;;4955357;28;20031;-78
2023/07/02 09:14:30;;;;;;;4.18;2.60;;;22.10;58.00;;;;;;4955403;28;20046;-78
2023/07/02 09:17:02;;;;;;;5.03;3.10;;;22.20;57.90;;;;;;4955542;28;20167;-77
2023/07/02 09:19:28;;;;;;;5.32;2.80;;;22.20;57.80;;;;;;4953763;29;20027;-77
2023/07/02 09:21:56;;;;;;;4.85;2.63;;;22.30;57.70;;;;;;4954133;29;20023;-77
2023/07/02 09:24:23;;;;;;;5.50;3.17;;;22.30;57.60;;;;;;4938591;29;20047;-76
2023/07/02 09:26:54;;;;;;;4.25;2.75;;;22.40;57.50;;;;;;4953748;29;20058;-77
2023/07/02 09:29:28;;;;;;;5.50;2.80;;;22.40;57.40;;;;;;4954134;29;20094;-77
2023/07/02 09:31:58;;;;;;;4.55;2.53;;;22.50;57.40;;;;;;4954810;28;20032;-77
2023/07/02 09:34:28;;;;;;;4.00;2.53;;;22.50;57.30;;;;;;4953668;29;20123;-77
2023/07/02 09:36:54;;;;;;;4.03;2.40;;;22.60;57.20;;;;;;4938662;29;20498;-77
2023/07/02 09:39:25;;;;;;;4.82;2.78;;;22.60;57.00;;;;;;4954665;29;20027;-77
2023/07/02 09:41:51;;;;;;;5.97;2.78;;;22.70;57.60;;;;;;4953254;28;20023;-78
2023/07/02 09:44:18;;;;;;;5.78;3.22;;;22.80;56.90;;;;;;4938012;29;20058;-77
2023/07/02 09:46:55;;;;;;;4.68;2.53;;;22.80;56.80;;;;;;4954894;28;20042;-77
2023/07/02 09:49:23;;;;;;;4.60;2.83;;;22.90;56.70;;;;;;4938014;29;20027;-75
2023/07/02 09:51:49;;;;;;;4.43;2.83;;;22.90;56.60;;;;;;4953590;28;20030;-75
2023/07/02 09:54:15;;;;;;;4.70;2.88;;;22.90;56.50;;;;;;4954624;28;20035;-77
2023/07/02 09:56:43;;;;;;;4.97;2.92;;;23.00;56.30;;;;;;4953388;29;20468;-75
2023/07/02 09:59:09;;;;;;;4.97;2.72;;;23.00;56.20;;;;;;4953452;29;20042;-75
2023/07/02 10:01:35;;;;;;;4.45;2.78;;;23.10;56.20;;;;;;4939287;29;20035;-75
2023/07/02 10:04:13;;;;;;;4.32;2.60;;;23.10;56.00;;;;;;4941033;29;20097;-75
2023/07/02 10:06:56;;;;;;;3.95;2.53;;;23.20;56.00;;;;;;4957009;29;20110;-76
2023/07/02 10:09:38;;;;;;;4.72;2.58;;;23.20;55.90;;;;;;4958438;28;20055;-76
2023/07/02 10:12:18;;;;;;;4.00;2.60;;;23.30;55.90;;;;;;4958304;28;20046;-79
2023/07/02 10:14:44;;;;;;;5.05;2.70;;;23.30;55.80;;;;;;4941142;29;20078;-78
2023/07/02 10:17:10;;;;;;;5.28;2.80;;;23.30;55.70;;;;;;4941157;28;20432;-78
2023/07/02 10:19:36;;;;;;;4.28;2.65;;;23.40;55.70;;;;;;4940787;29;20063;-78
2023/07/02 10:22:03;;;;;;;5.18;2.53;;;23.40;55.70;;;;;;4957726;28;20480;-79
2023/07/02 10:24:29;;;;;;;4.35;2.50;;;23.50;55.60;;;;;;4940602;29;20047;-78
2023/07/02 10:27:00;;;;;;;4.05;2.60;;;23.50;55.50;;;;;;4957392;28;20464;-77
2023/07/02 10:29:27;;;;;;;4.22;2.58;;;23.60;55.50;;;;;;4957655;28;20090;-77
2023/07/02 10:31:57;;;;;;;5.68;2.55;;;23.60;55.40;;;;;;4957229;29;20031;-77
2023/07/02 10:34:49;;;;;;;4.72;2.65;;;23.60;55.30;;;;;;4958097;28;20047;-77
2023/07/02 10:37:14;;;;;;;5.13;2.50;;;23.60;55.30;;;;;;4954061;29;20047;-81
2023/07/02 10:39:40;;;;;;;4.03;2.45;;;23.60;55.20;;;;;;4941617;29;20028;-76
2023/07/02 10:42:10;;;;;;;4.38;2.70;;;23.70;55.30;;;;;;4940263;29;20508;-76
2023/07/02 10:44:51;;;;;;;3.58;2.30;;;23.70;55.20;;;;;;4956279;29;20039;-77
2023/07/02 10:47:17;;;;;;;4.00;2.30;;;23.80;55.20;;;;;;4958384;28;20106;-76
2023/07/02 10:49:43;;;;;;;4.32;2.28;;;23.80;55.10;;;;;;4940084;29;20039;-76
2023/07/02 10:52:08;;;;;;;5.25;2.50;;;23.90;55.10;;;;;;4956549;29;20035;-75
2023/07/02 10:54:45;;;;;;;4.63;2.25;;;23.90;55.00;;;;;;4940080;29;20113;-76
2023/07/02 10:57:13;;;;;;;3.90;2.50;;;23.90;55.00;;;;;;4956678;29;20429;-80
2023/07/02 10:59:39;;;;;;;3.67;2.28;;;24.00;55.00;;;;;;4940271;28;20027;-77
2023/07/02 11:02:06;;;;;;;4.45;2.40;;;24.00;55.00;;;;;;4940049;29;20035;-76
2023/07/02 11:04:33;;;;;;;3.30;2.10;;;24.00;54.90;;;;;;4957299;28;20043;-77
2023/07/02 11:07:00;;;;;;;4.18;2.55;;;24.10;54.90;;;;;;4956186;28;20043;-77
2023/07/02 11:09:26;;;;;;;4.80;2.15;;;24.10;54.90;;;;;;4940533;29;20035;-77
2023/07/02 11:11:58;;;;;;;4.32;2.30;;;24.20;54.90;;;;;;4939410;29;20042;-76
2023/07/02 11:14:35;;;;;;;3.97;2.40;;;24.20;54.80;;;;;;4956299;29;20479;-77
2023/07/02 11:17:05;;;;;;;3.08;2.10;;;24.20;54.70;;;;;;4955819;29;20027;-79
2023/07/02 11:19:31;;;;;;;2.88;2.17;;;24.20;54.60;;;;;;4955846;29;20065;-77
2023/07/02 11:21:58;;;;;;;4.20;2.20;;;24.20;54.60;;;;;;4957069;28;20042;-77
2023/07/02 11:24:35;;;;;;;3.63;2.17;;;24.30;54.60;;;;;;4939587;29;20045;-77
2023/07/02 11:27:03;;;;;;;3.67;2.08;;;24.30;54.60;;;;;;4955674;29;20058;-77
2023/07/02 11:29:30;;;;;;;4.25;2.47;;;24.30;54.50;;;;;;4957126;28;20024;-77
2023/07/02 11:32:06;;;;;;;3.88;2.30;;;24.40;54.60;;;;;;4955297;29;20039;-77
2023/07/02 11:34:32;;;;;;;3.85;2.33;;;24.40;54.60;;;;;;4940352;29;20035;-77
2023/07/02 11:36:58;;;;;;;4.53;2.20;;;24.40;54.50;;;;;;4955327;29;20032;-77
2023/07/02 11:39:24;;;;;;;3.13;1.90;;;24.40;54.60;;;;;;4955848;29;20038;-76
2023/07/02 11:41:50;;;;;;;3.50;2.22;;;24.40;54.50;;;;;;4956647;28;20492;-77
2023/07/02 11:44:17;;;;;;;3.60;2.20;;;24.40;55.10;;;;;;4955674;29;20485;-77
2023/07/02 11:46:43;;;;;;;3.65;2.08;;;24.40;54.40;;;;;;4955311;28;20076;-77
2023/07/02 11:49:09;;;;;;;3.58;2.20;;;24.40;54.50;;;;;;4939300;29;20031;-77
2023/07/02 11:51:39;;;;;;;4.15;2.03;;;24.40;54.50;;;;;;4955209;28;20023;-77
2023/07/02 11:54:06;;;;;;;3.55;2.30;;;24.50;54.50;;;;;;4955094;29;20133;-76
2023/07/02 11:56:32;;;;;;;4.57;2.30;;;24.50;54.50;;;;;;4939433;29;20035;-77
2023/07/02 11:58:58;;;;;;;4.30;2.20;;;24.50;54.60;;;;;;4939104;28;20475;-77
2023/07/02 12:01:24;;;;;;;3.80;2.17;;;24.50;54.50;;;;;;4954897;29;20035;-78
2023/07/02 12:03:50;;;;;;;2.95;2.05;;;24.60;54.60;;;;;;4956284;28;20046;-77
2023/07/02 12:06:16;;;;;;;3.30;2.17;;;24.60;54.50;;;;;;4956181;28;20035;-77
2023/07/02 12:08:42;;;;;;;3.72;2.28;;;24.60;54.50;;;;;;4938829;29;20059;-78
2023/07/02 12:11:08;;;;;;;4.03;2.40;;;24.60;54.50;;;;;;4954700;29;20498;-79
2023/07/02 12:13:34;;;;;;;1.95;1.55;;;24.60;54.40;;;;;;4955697;28;20074;-78
2023/07/02 12:16:00;;;;;;;3.70;2.15;;;24.60;54.40;;;;;;4954693;29;20494;-79
2023/07/02 12:18:26;;;;;;;3.22;2.13;;;24.60;54.40;;;;;;4955640;29;20035;-77
2023/07/02 12:20:52;;;;;;;2.67;1.90;;;24.60;54.40;;;;;;4955664;28;20039;-77
2023/07/02 12:23:17;;;;;;;2.72;1.85;;;24.60;54.30;;;;;;4955664;28;20488;-76
2023/07/02 12:25:43;;;;;;;2.95;1.90;;;24.60;54.30;;;;;;4954107;29;20038;-76
2023/07/02 12:28:09;;;;;;;3.45;2.03;;;24.70;54.30;;;;;;4938719;28;20067;-77
2023/07/02 12:30:35;;;;;;;3.80;2.17;;;24.70;54.30;;;;;;4939375;29;20480;-77
2023/07/02 12:33:00;;;;;;;3.47;2.03;;;24.70;54.30;;;;;;4954298;29;20454;-77
2023/07/02 12:35:26;;;;;;;3.60;1.80;;;24.70;54.20;;;;;;4955746;28;20127;-77
2023/07/02 12:37:53;;;;;;;3.03;2.00;;;24.70;54.20;;;;;;4938329;29;20039;-78
2023/07/02 12:40:19;;;;;;;3.05;2.03;;;24.70;54.20;;;;;;4954321;29;20023;-77
2023/07/02 12:42:46;;;;;;;3.60;2.17;;;24.70;54.30;;;;;;4954238;29;20055;-77
2023/07/02 12:45:14;;;;;;;3.20;2.20;;;24.70;54.30;;;;;;4955229;28;20488;-78